Arctic Bay — 9HTD8 — position and weather

sailwx.info

Track history (hours):
 
Tides and Currents Weather Stations Pressure Air Temp Water Temp Dewpoint Dewpoint Depression Visibility Wind Speed Wind Dir Waves Ship Positions

Arctic Bay

Last reported at 2014-Nov-27 21:33 UTC. Time now 2014-Nov-27 21:53 UTC.
Position N 55°12' W 005°49'.

Length 182 m; draft 7.5 m.

Type: Tanker. MMSI: 256396000.

Date/timePositionNaut miles runAvg speedWind from/ knotsBaromVisibWave heightAir tempDewpointWater temp
2014-Nov-27 21:33N 55°12' W 005°49'1111.1
2014-Nov-27 20:31N 55°02' W 005°40'1111.7
2014-Nov-27 19:33N 54°52' W 005°31'1212.4
2014-Nov-27 18:33N 54°41' W 005°21'1313.3
2014-Nov-27 17:33N 54°28' W 005°13'1413.1
2014-Nov-27 16:30N 54°15' W 005°07'4611.4
2014-Nov-27 12:30N 53°44' W 004°10'1010.6
2014-Nov-27 11:33N 53°39' W 003°55'1110.6
2014-Nov-27 10:32N 53°34' W 003°39'1010.4
2014-Nov-27 09:34N 53°34' W 003°22'0 0.1
2014-Nov-27 08:28N 53°34' W 003°22'0 0.0
2014-Nov-27 06:16N 53°34' W 003°22'0 0.0
2014-Nov-27 05:28N 53°34' W 003°22'0 0.0
2014-Nov-27 04:22N 53°34' W 003°22'0 0.0
2014-Nov-27 03:28N 53°34' W 003°22'0 0.1
2014-Nov-27 00:16N 53°34' W 003°22'0 0.0
2014-Nov-26 23:31N 53°34' W 003°22'0 0.0
2014-Nov-26 22:28N 53°34' W 003°22'0 0.1
2014-Nov-26 21:22N 53°34' W 003°22'0 0.1
2014-Nov-26 20:28N 53°34' W 003°22'0 0.0
2014-Nov-26 18:33N 53°34' W 003°22'0 0.0
2014-Nov-26 17:33N 53°34' W 003°22'0 0.0
2014-Nov-26 16:32N 53°34' W 003°22'0 0.0
2014-Nov-26 15:33N 53°34' W 003°22'0 0.0
2014-Nov-26 14:31N 53°34' W 003°22'0 0.0
2014-Nov-26 13:32N 53°34' W 003°22'0 0.2
2014-Nov-26 12:30N 53°33' W 003°22'2 2.5
2014-Nov-26 11:33N 53°33' W 003°18'7 7.2
2014-Nov-26 10:33N 53°31' W 003°06'9 1.1
2014-Nov-26 02:22N 53°23' W 002°60'0 0.0
2014-Nov-25 12:04N 53°23' W 002°60'0 0.0
2014-Nov-25 07:22N 53°23' W 002°60'0 0.0
2014-Nov-25 02:10N 53°23' W 002°60'0 0.0
2014-Nov-24 23:28N 53°23' W 002°60'0 0.0
2014-Nov-23 01:22N 53°23' W 002°60'0 0.0
2014-Nov-22 23:16N 53°23' W 002°60'0 0.0
2014-Nov-21 10:33N 53°23' W 002°60'4 3.5
2014-Nov-21 09:33N 53°26' W 003°01'9 9.1
2014-Nov-21 08:33N 53°31' W 003°14'5 5.4
2014-Nov-21 07:33N 53°33' W 003°22'0 0.1
2014-Nov-21 06:13N 53°33' W 003°22'0 0.2
2014-Nov-21 05:13N 53°34' W 003°22'0 0.0
2014-Nov-21 01:25N 53°34' W 003°22'0 0.0
2014-Nov-20 22:25N 53°34' W 003°22'0 0.1
2014-Nov-20 21:31N 53°34' W 003°22'0 0.1
2014-Nov-20 20:19N 53°34' W 003°22'0 0.0
2014-Nov-20 19:25N 53°33' W 003°22'0 0.0
2014-Nov-20 15:25N 53°34' W 003°22'0 0.0
2014-Nov-20 14:25N 53°34' W 003°22'0 0.0
2014-Nov-20 13:07N 53°34' W 003°22'0 0.0
2014-Nov-20 12:28N 53°34' W 003°22'0 0.0
2014-Nov-20 10:25N 53°34' W 003°22'0 0.1
2014-Nov-20 07:31N 53°34' W 003°22'0 0.0
2014-Nov-20 06:19N 53°34' W 003°22'0 0.2
2014-Nov-20 05:32N 53°34' W 003°22'13 9.9
2014-Nov-20 04:11N 53°32' W 003°44'1212.0
2014-Nov-20 03:10N 53°36' W 004°04'6210.2
2014-Nov-19 21:08N 54°25' W 005°09'711.9
2014-Nov-19 20:33N 54°32' W 005°10'1312.6
2014-Nov-19 19:33N 54°43' W 005°19'1313.1
2014-Nov-19 18:33N 54°54' W 005°30'2613.2
2014-Nov-19 16:33N 55°15' W 005°59'1111.3
2014-Nov-19 15:33N 55°22' W 006°15'1111.4
2014-Nov-19 14:33N 55°26' W 006°34'1010.0
2014-Nov-19 13:33N 55°30' W 006°50'195 9.2
2014-Nov-18 16:26N 58°43' W 006°13'4712.1
2014-Nov-18 12:33N 59°03' W 004°51'1312.5
2014-Nov-18 11:33N 59°09' W 004°29'1312.5
2014-Nov-18 10:33N 59°14' W 004°07'1212.4
2014-Nov-18 09:33N 59°22' W 003°48'1212.0
2014-Nov-18 08:33N 59°27' W 003°27'  
Track history (hours):
 
Tides and Currents Weather Stations Pressure Air Temp Water Temp Dewpoint Dewpoint Depression Visibility Wind Speed Wind Dir Waves Ship Positions

Arctic Bay

Last reported at 2014-Nov-27 21:33 UTC. Time now 2014-Nov-27 21:53 UTC.
Position N 55°12' W 005°49'.

Length 182 m; draft 7.5 m.

Type: Tanker. MMSI: 256396000.

Date/timePositionNaut miles runAvg speedWind from/ knotsBaromVisibWave heightAir tempDewpointWater temp
2014-Nov-27 21:33N 55°12' W 005°49'1111.1
2014-Nov-27 20:31N 55°02' W 005°40'1111.7
2014-Nov-27 19:33N 54°52' W 005°31'1212.4
2014-Nov-27 18:33N 54°41' W 005°21'1313.3
2014-Nov-27 17:33N 54°28' W 005°13'1413.1
2014-Nov-27 16:30N 54°15' W 005°07'4611.4
2014-Nov-27 12:30N 53°44' W 004°10'1010.6
2014-Nov-27 11:33N 53°39' W 003°55'1110.6
2014-Nov-27 10:32N 53°34' W 003°39'1010.4
2014-Nov-27 09:34N 53°34' W 003°22'0 0.1
2014-Nov-27 08:28N 53°34' W 003°22'0 0.0
2014-Nov-27 06:16N 53°34' W 003°22'0 0.0
2014-Nov-27 05:28N 53°34' W 003°22'0 0.0
2014-Nov-27 04:22N 53°34' W 003°22'0 0.0
2014-Nov-27 03:28N 53°34' W 003°22'0 0.1
2014-Nov-27 00:16N 53°34' W 003°22'0 0.0
2014-Nov-26 23:31N 53°34' W 003°22'0 0.0
2014-Nov-26 22:28N 53°34' W 003°22'0 0.1
2014-Nov-26 21:22N 53°34' W 003°22'0 0.1
2014-Nov-26 20:28N 53°34' W 003°22'0 0.0
2014-Nov-26 18:33N 53°34' W 003°22'0 0.0
2014-Nov-26 17:33N 53°34' W 003°22'0 0.0
2014-Nov-26 16:32N 53°34' W 003°22'0 0.0
2014-Nov-26 15:33N 53°34' W 003°22'0 0.0
2014-Nov-26 14:31N 53°34' W 003°22'0 0.0
2014-Nov-26 13:32N 53°34' W 003°22'0 0.2
2014-Nov-26 12:30N 53°33' W 003°22'2 2.5
2014-Nov-26 11:33N 53°33' W 003°18'7 7.2
2014-Nov-26 10:33N 53°31' W 003°06'9 1.1
2014-Nov-26 02:22N 53°23' W 002°60'0 0.0
2014-Nov-25 12:04N 53°23' W 002°60'0 0.0
2014-Nov-25 07:22N 53°23' W 002°60'0 0.0
2014-Nov-25 02:10N 53°23' W 002°60'0 0.0
2014-Nov-24 23:28N 53°23' W 002°60'0 0.0
2014-Nov-23 01:22N 53°23' W 002°60'0 0.0
2014-Nov-22 23:16N 53°23' W 002°60'0 0.0
2014-Nov-21 10:33N 53°23' W 002°60'4 3.5
2014-Nov-21 09:33N 53°26' W 003°01'9 9.1
2014-Nov-21 08:33N 53°31' W 003°14'5 5.4
2014-Nov-21 07:33N 53°33' W 003°22'0 0.1
2014-Nov-21 06:13N 53°33' W 003°22'0 0.2
2014-Nov-21 05:13N 53°34' W 003°22'0 0.0
2014-Nov-21 01:25N 53°34' W 003°22'0 0.0
2014-Nov-20 22:25N 53°34' W 003°22'0 0.1
2014-Nov-20 21:31N 53°34' W 003°22'0 0.1
2014-Nov-20 20:19N 53°34' W 003°22'0 0.0
2014-Nov-20 19:25N 53°33' W 003°22'0 0.0
2014-Nov-20 15:25N 53°34' W 003°22'0 0.0
2014-Nov-20 14:25N 53°34' W 003°22'0 0.0
2014-Nov-20 13:07N 53°34' W 003°22'0 0.0
2014-Nov-20 12:28N 53°34' W 003°22'0 0.0
2014-Nov-20 10:25N 53°34' W 003°22'0 0.1
2014-Nov-20 07:31N 53°34' W 003°22'0 0.0
2014-Nov-20 06:19N 53°34' W 003°22'0 0.2
2014-Nov-20 05:32N 53°34' W 003°22'13 9.9
2014-Nov-20 04:11N 53°32' W 003°44'1212.0
2014-Nov-20 03:10N 53°36' W 004°04'6210.2
2014-Nov-19 21:08N 54°25' W 005°09'711.9
2014-Nov-19 20:33N 54°32' W 005°10'1312.6
2014-Nov-19 19:33N 54°43' W 005°19'1313.1
2014-Nov-19 18:33N 54°54' W 005°30'2613.2
2014-Nov-19 16:33N 55°15' W 005°59'1111.3
2014-Nov-19 15:33N 55°22' W 006°15'1111.4
2014-Nov-19 14:33N 55°26' W 006°34'1010.0
2014-Nov-19 13:33N 55°30' W 006°50'195 9.2
2014-Nov-18 16:26N 58°43' W 006°13'4712.1
2014-Nov-18 12:33N 59°03' W 004°51'1312.5
2014-Nov-18 11:33N 59°09' W 004°29'1312.5
2014-Nov-18 10:33N 59°14' W 004°07'1212.4
2014-Nov-18 09:33N 59°22' W 003°48'1212.0
2014-Nov-18 08:33N 59°27' W 003°27'  

Dump ship's entire track history